createdAt,value
2018-07-11T00:00:31.123Z,85.50
2018-07-11T00:05:24.424Z,86.00
2018-07-11T00:10:19.228Z,86.30
2018-07-11T00:15:12.483Z,86.70
2018-07-11T00:20:05.859Z,87.50
2018-07-11T00:24:59.085Z,87.80
2018-07-11T00:29:52.464Z,87.60
2018-07-11T00:34:45.813Z,87.70
2018-07-11T00:39:39.133Z,87.60
2018-07-11T00:44:32.465Z,87.80
2018-07-11T00:49:25.823Z,88.00
2018-07-11T00:54:19.270Z,88.50
2018-07-11T00:59:26.594Z,89.00
2018-07-11T01:04:19.957Z,89.70
2018-07-11T01:14:06.500Z,89.90
2018-07-11T01:19:05.979Z,89.80
2018-07-11T01:23:59.721Z,90.10
2018-07-11T01:28:53.069Z,90.40
2018-07-11T01:33:46.320Z,90.50
2018-07-11T01:38:39.591Z,90.70
2018-07-11T01:43:32.893Z,90.50
2018-07-11T01:48:26.260Z,90.20
2018-07-11T01:53:19.579Z,90.10
2018-07-11T02:07:59.563Z,90.40
2018-07-11T02:12:52.796Z,90.70
2018-07-11T02:17:46.349Z,90.80
2018-07-11T02:22:40.037Z,91.10
2018-07-11T02:32:26.927Z,91.50
2018-07-11T02:37:20.201Z,91.60
2018-07-11T02:42:13.541Z,91.90
2018-07-11T02:52:37.429Z,92.60
2018-07-11T02:57:30.722Z,92.90
2018-07-11T03:02:24.080Z,93.00
2018-07-11T03:07:18.337Z,93.20
2018-07-11T03:12:11.577Z,93.40
2018-07-11T03:17:05.959Z,93.70
2018-07-11T03:21:59.271Z,94.00
2018-07-11T03:36:39.336Z,94.50
2018-07-11T03:41:32.627Z,94.80
2018-07-11T03:46:25.920Z,95.30
2018-07-11T03:51:19.206Z,95.20
2018-07-11T03:56:12.441Z,95.40
2018-07-11T04:01:05.679Z,95.50
2018-07-11T04:10:52.145Z,95.90
2018-07-11T04:15:45.626Z,95.90
2018-07-11T04:20:38.884Z,95.60
2018-07-11T04:30:25.338Z,94.60
2018-07-11T04:35:18.537Z,94.20
2018-07-11T04:40:11.793Z,93.80
2018-07-11T04:45:05.054Z,93.40
2018-07-11T04:59:44.844Z,92.40
2018-07-11T05:04:38.776Z,92.30
2018-07-11T05:09:32.003Z,92.20
2018-07-11T05:14:25.220Z,92.00
2018-07-11T05:29:05.515Z,91.40
2018-07-11T05:33:58.735Z,90.10
2018-07-11T05:38:51.990Z,87.60
2018-07-11T05:48:38.361Z,86.80
2018-07-11T05:53:31.607Z,86.50
2018-07-11T06:03:18.203Z,86.20
2018-07-11T06:08:12.155Z,85.90
2018-07-11T06:17:58.605Z,87.10
2018-07-11T06:22:52.289Z,88.00
2018-07-11T06:32:38.819Z,86.90
2018-07-11T06:37:32.094Z,80.90
2018-07-11T06:42:25.313Z,71.00
2018-07-11T06:47:18.572Z,67.40
2018-07-11T06:52:11.981Z,63.10
2018-07-11T06:57:06.373Z,61.30
2018-07-11T07:01:59.585Z,55.50
2018-07-11T07:06:53.408Z,52.40
2018-07-11T07:16:40.661Z,46.40
2018-07-11T07:21:33.961Z,46.40
2018-07-11T07:26:27.179Z,45.70
2018-07-11T07:31:20.430Z,42.00
2018-07-11T07:36:13.860Z,45.20
2018-07-11T07:41:08.462Z,44.80
2018-07-11T07:46:01.828Z,41.30
2018-07-11T07:50:55.151Z,41.50
2018-07-11T07:55:48.533Z,39.60
2018-07-11T08:00:41.786Z,38.10
2018-07-11T08:10:28.299Z,40.00
2018-07-11T08:15:21.564Z,39.60
2018-07-11T08:20:15.016Z,39.10
2018-07-11T08:26:28.562Z,37.30
2018-07-11T08:31:43.029Z,35.60
2018-07-11T08:38:54.685Z,36.80
2018-07-11T08:46:04.772Z,36.50
2018-07-11T08:52:20.741Z,36.10
2018-07-11T08:58:04.833Z,34.80
2018-07-11T09:07:22.742Z,39.30
2018-07-11T09:12:35.551Z,40.70
2018-07-11T09:19:22.037Z,39.70
2018-07-11T09:29:25.967Z,43.50
2018-07-11T09:34:19.261Z,43.50
2018-07-11T09:44:05.938Z,45.50
2018-07-11T09:48:59.383Z,45.10
2018-07-11T09:53:52.697Z,45.60
2018-07-11T09:58:46.627Z,44.60
2018-07-11T10:03:39.903Z,41.70
2018-07-11T10:08:33.232Z,40.40
2018-07-11T10:13:26.643Z,40.90
2018-07-11T10:18:20.239Z,41.80
2018-07-11T10:23:13.589Z,42.20
2018-07-11T10:28:18.184Z,43.90
2018-07-11T10:38:05.887Z,41.50
2018-07-11T10:42:59.283Z,40.60
2018-07-11T10:47:52.703Z,42.00
2018-07-11T10:52:46.530Z,43.00
2018-07-11T10:57:40.667Z,44.10
2018-07-11T11:02:33.890Z,46.00
2018-07-11T11:17:14.428Z,49.00
2018-07-11T11:27:02.096Z,45.50
2018-07-11T11:31:55.368Z,45.40
2018-07-11T11:36:48.642Z,44.00
2018-07-11T11:41:42.368Z,42.10
2018-07-11T11:46:35.456Z,41.70
2018-07-11T11:51:28.679Z,42.20
2018-07-11T12:01:15.320Z,41.10
2018-07-11T12:06:09.509Z,40.30
2018-07-11T12:11:02.905Z,39.40
2018-07-11T12:20:49.649Z,39.00
2018-07-11T12:26:09.624Z,38.70
2018-07-11T12:31:03.073Z,37.20
2018-07-11T12:35:56.379Z,37.60
2018-07-11T12:40:49.713Z,37.30
2018-07-11T12:45:42.992Z,37.50
2018-07-11T12:50:36.344Z,36.30
2018-07-11T13:00:22.991Z,36.20
2018-07-11T13:05:16.341Z,34.90
2018-07-11T13:10:09.668Z,35.00
2018-07-11T13:15:02.957Z,35.80
2018-07-11T13:19:56.209Z,37.30
2018-07-11T13:29:42.615Z,39.40
2018-07-11T13:34:36.337Z,39.90
2018-07-11T13:44:22.724Z,41.60
2018-07-11T13:49:16.044Z,42.90
2018-07-11T13:54:09.815Z,45.00
2018-07-11T13:59:03.835Z,46.30
2018-07-11T14:08:51.181Z,48.20
2018-07-11T14:13:44.524Z,48.30
2018-07-11T14:18:37.911Z,49.20
2018-07-11T14:23:39.326Z,50.20
2018-07-11T14:33:29.770Z,52.50
2018-07-11T14:43:18.426Z,53.80
2018-07-11T14:48:15.891Z,54.00
2018-07-11T14:53:09.456Z,54.90
2018-07-11T14:58:02.773Z,55.60
2018-07-11T15:02:56.693Z,55.90
2018-07-11T15:12:43.155Z,56.80
2018-07-11T15:17:36.576Z,57.50
2018-07-11T15:22:29.981Z,61.70
2018-07-11T15:27:23.583Z,70.90
2018-07-11T15:37:10.217Z,90.70
2018-07-11T15:42:04.080Z,90.90
2018-07-11T15:46:57.453Z,90.60
2018-07-11T15:51:51.136Z,90.40
2018-07-11T15:56:44.576Z,90.10
2018-07-11T16:01:46.141Z,89.90
2018-07-11T16:06:39.655Z,88.70
2018-07-11T16:11:32.995Z,87.40
2018-07-11T16:16:26.285Z,86.80
2018-07-11T16:21:19.623Z,85.50
2018-07-11T16:26:13.119Z,84.30
2018-07-11T16:35:59.629Z,85.60
2018-07-11T16:40:54.051Z,84.90
2018-07-11T16:45:47.424Z,84.50
2018-07-11T16:50:40.755Z,84.90
2018-07-11T16:55:35.248Z,84.80
2018-07-11T17:00:32.358Z,84.10
2018-07-11T17:05:25.692Z,82.60
2018-07-11T17:10:21.362Z,82.50
2018-07-11T17:15:14.716Z,83.20
2018-07-11T17:20:10.220Z,83.50
2018-07-11T17:25:05.986Z,83.60
2018-07-11T17:30:02.283Z,82.70
2018-07-11T17:39:54.893Z,83.20
2018-07-11T17:44:53.380Z,83.10
2018-07-11T17:49:55.801Z,86.60
2018-07-11T17:55:08.686Z,87.10
2018-07-11T18:00:07.458Z,91.30
2018-07-11T18:05:48.862Z,93.40
2018-07-11T18:10:47.912Z,94.00
2018-07-11T18:23:14.044Z,97.10
2018-07-11T18:28:22.219Z,98.50
2018-07-11T18:33:43.537Z,99.00
2018-07-11T18:39:05.844Z,99.30
2018-07-11T18:46:20.655Z,99.30
2018-07-11T18:51:28.780Z,99.90
2018-07-11T18:57:09.071Z,99.90
2018-07-11T19:05:26.153Z,99.90
2018-07-11T19:10:44.834Z,99.90
2018-07-11T19:21:47.040Z,99.90
2018-07-11T19:33:06.329Z,99.90
2018-07-11T19:38:07.186Z,99.90
2018-07-11T19:44:16.752Z,99.90
2018-07-11T19:49:30.575Z,99.90
2018-07-11T19:54:46.332Z,99.90
2018-07-11T19:59:39.647Z,99.90
2018-07-11T20:04:33.020Z,99.90
2018-07-11T20:09:27.055Z,99.90
2018-07-11T20:14:21.378Z,99.90
2018-07-11T20:19:14.823Z,99.90
2018-07-11T20:24:08.125Z,99.90
2018-07-11T20:29:01.489Z,99.90
2018-07-11T20:33:54.743Z,99.90
2018-07-11T20:38:48.041Z,99.90
2018-07-11T20:43:41.630Z,99.90
2018-07-11T20:48:38.613Z,99.90
2018-07-11T20:53:32.007Z,99.90
2018-07-11T21:04:49.462Z,99.90
2018-07-11T21:10:16.296Z,99.90
2018-07-11T21:17:29.642Z,99.90
2018-07-11T21:22:22.925Z,99.90
2018-07-11T21:27:16.137Z,99.90
2018-07-11T21:32:09.386Z,99.90
2018-07-11T21:37:02.617Z,99.90
2018-07-11T21:41:55.867Z,99.90
2018-07-11T21:46:49.147Z,99.90
2018-07-11T21:56:35.525Z,99.90
2018-07-11T22:01:28.856Z,99.90
2018-07-11T22:06:22.109Z,99.90
2018-07-11T22:11:15.359Z,99.90
2018-07-11T22:16:11.486Z,99.90
2018-07-11T22:21:04.041Z,99.90
2018-07-11T22:25:55.611Z,99.90
2018-07-11T22:30:48.137Z,99.90
2018-07-11T22:35:40.531Z,99.90
2018-07-11T22:40:32.218Z,99.90
2018-07-11T22:45:23.811Z,99.90
2018-07-11T22:50:15.959Z,99.90
2018-07-11T22:55:07.528Z,99.90
2018-07-11T23:04:51.123Z,99.90
2018-07-11T23:09:42.771Z,99.90
2018-07-11T23:14:34.671Z,99.90
2018-07-11T23:19:26.526Z,99.90
2018-07-11T23:29:10.229Z,99.90
2018-07-11T23:34:01.794Z,99.90
2018-07-11T23:38:53.379Z,99.90
2018-07-11T23:48:36.957Z,99.90
2018-07-11T23:58:20.585Z,99.90
